createdAt,value
2023-04-14T00:01:36.440Z,4.13
2023-04-14T00:04:06.039Z,3.63
2023-04-14T00:06:34.015Z,4.90
2023-04-14T00:09:02.108Z,3.40
2023-04-14T00:11:30.211Z,3.70
2023-04-14T00:13:58.370Z,4.63
2023-04-14T00:16:26.209Z,3.40
2023-04-14T00:18:54.135Z,3.13
2023-04-14T00:21:23.361Z,3.00
2023-04-14T00:23:51.825Z,3.10
2023-04-14T00:26:19.774Z,2.80
2023-04-14T00:28:47.741Z,2.80
2023-04-14T00:31:17.335Z,3.17
2023-04-14T00:33:45.263Z,2.63
2023-04-14T00:36:13.087Z,2.80
2023-04-14T00:38:42.294Z,3.30
2023-04-14T00:41:10.182Z,3.23
2023-04-14T00:43:38.096Z,3.17
2023-04-14T00:46:07.009Z,3.57
2023-04-14T00:48:35.691Z,2.83
2023-04-14T00:51:04.834Z,3.20
2023-04-14T00:53:33.299Z,3.37
2023-04-14T00:56:02.667Z,2.77
2023-04-14T00:58:31.581Z,3.00
2023-04-14T01:00:59.511Z,3.03
2023-04-14T01:03:27.620Z,2.90
2023-04-14T01:05:56.369Z,2.90
2023-04-14T01:08:25.043Z,3.43
2023-04-14T01:11:03.011Z,3.33
2023-04-14T01:13:42.197Z,3.80
2023-04-14T01:16:19.060Z,3.90
2023-04-14T01:18:54.592Z,4.00
2023-04-14T01:21:29.641Z,2.80
2023-04-14T01:24:14.903Z,3.77
2023-04-14T01:26:46.982Z,3.90
2023-04-14T01:29:38.041Z,3.43
2023-04-14T01:32:10.588Z,4.23
2023-04-14T01:34:44.740Z,4.03
2023-04-14T01:37:16.768Z,4.10
2023-04-14T01:39:51.110Z,4.10
2023-04-14T01:42:24.302Z,3.83
2023-04-14T01:44:58.215Z,4.23
2023-04-14T01:47:29.921Z,4.20
2023-04-14T01:50:02.107Z,4.30
2023-04-14T01:52:32.508Z,4.30
2023-04-14T01:55:05.809Z,3.13
2023-04-14T01:57:36.947Z,4.07
2023-04-14T02:00:08.882Z,3.20
2023-04-14T02:02:45.364Z,4.10
2023-04-14T02:05:14.471Z,3.30
2023-04-14T02:07:46.995Z,4.37
2023-04-14T02:10:17.251Z,4.60
2023-04-14T02:12:48.337Z,3.27
2023-04-14T02:15:18.755Z,4.40
2023-04-14T02:17:50.421Z,4.07
2023-04-14T02:20:19.783Z,3.80
2023-04-14T02:22:48.993Z,3.80
2023-04-14T02:25:17.413Z,3.93
2023-04-14T02:27:51.095Z,4.00
2023-04-14T02:30:25.762Z,3.37
2023-04-14T02:32:58.856Z,4.23
2023-04-14T02:35:29.376Z,4.50
2023-04-14T02:38:08.286Z,4.03
2023-04-14T02:40:40.348Z,3.43
2023-04-14T02:43:14.922Z,3.60
2023-04-14T02:45:49.040Z,2.80
2023-04-14T02:48:24.878Z,3.27
2023-04-14T02:50:55.912Z,2.90
2023-04-14T02:53:27.933Z,3.87
2023-04-14T02:56:09.244Z,3.90
2023-04-14T02:58:41.864Z,4.30
2023-04-14T03:01:10.923Z,4.13
2023-04-14T03:03:40.632Z,3.70
2023-04-14T03:06:15.522Z,3.60
2023-04-14T03:08:45.048Z,3.50
2023-04-14T03:11:15.556Z,3.70
2023-04-14T03:13:46.100Z,3.40
2023-04-14T03:16:15.114Z,4.00
2023-04-14T03:18:45.367Z,3.87
2023-04-14T03:21:16.656Z,3.30
2023-04-14T03:23:46.113Z,3.73
2023-04-14T03:26:19.392Z,4.00
2023-04-14T03:28:48.654Z,3.23
2023-04-14T03:31:19.685Z,3.93
2023-04-14T03:33:57.335Z,3.70
2023-04-14T03:36:33.022Z,3.07
2023-04-14T03:39:03.425Z,3.00
2023-04-14T03:41:37.814Z,3.10
2023-04-14T03:44:10.809Z,3.20
2023-04-14T03:46:38.770Z,3.60
2023-04-14T03:49:11.382Z,3.80
2023-04-14T03:51:42.793Z,2.80
2023-04-14T03:54:12.627Z,2.70
2023-04-14T03:56:41.377Z,2.90
2023-04-14T03:59:15.375Z,3.03
2023-04-14T04:01:46.754Z,2.90
2023-04-14T04:04:16.804Z,3.43
2023-04-14T04:06:45.085Z,3.20
2023-04-14T04:09:15.860Z,3.20
2023-04-14T04:11:47.894Z,3.63
2023-04-14T04:14:19.981Z,3.60
2023-04-14T04:16:49.604Z,3.10
2023-04-14T04:19:21.764Z,3.97
2023-04-14T04:21:52.610Z,3.23
2023-04-14T04:24:24.482Z,3.37
2023-04-14T04:26:54.377Z,3.63
2023-04-14T04:29:23.586Z,2.67
2023-04-14T04:31:53.831Z,3.73
2023-04-14T04:34:26.302Z,2.57
2023-04-14T04:36:55.438Z,2.80
2023-04-14T04:39:23.249Z,2.50
2023-04-14T04:41:51.989Z,2.73
2023-04-14T04:44:20.648Z,2.90
2023-04-14T04:46:54.272Z,2.67
2023-04-14T04:49:27.753Z,2.63
2023-04-14T04:51:57.585Z,2.77
2023-04-14T04:54:27.100Z,3.20
2023-04-14T04:56:55.289Z,3.40
2023-04-14T04:59:23.127Z,3.63
2023-04-14T05:01:51.258Z,3.10
2023-04-14T05:04:19.553Z,3.80
2023-04-14T05:06:49.043Z,5.03
2023-04-14T05:09:17.050Z,3.17
2023-04-14T05:11:45.174Z,3.03
2023-04-14T05:14:13.037Z,3.40
2023-04-14T05:16:41.007Z,2.80
2023-04-14T05:19:08.850Z,3.50
2023-04-14T05:21:36.814Z,3.87
2023-04-14T05:24:09.382Z,3.40
2023-04-14T05:26:57.770Z,3.87
2023-04-14T05:29:25.419Z,3.27
2023-04-14T05:31:53.473Z,3.57
2023-04-14T05:34:22.531Z,3.43
2023-04-14T05:36:50.881Z,3.63
2023-04-14T05:39:20.244Z,3.13
2023-04-14T05:41:48.209Z,3.63
2023-04-14T05:44:16.190Z,3.90
2023-04-14T05:46:44.088Z,3.60
2023-04-14T05:49:12.220Z,3.07
2023-04-14T05:51:40.735Z,3.20
2023-04-14T05:54:08.569Z,3.80
2023-04-14T05:56:38.331Z,2.97
2023-04-14T05:59:06.233Z,3.07
2023-04-14T06:01:34.510Z,3.53
2023-04-14T06:04:05.106Z,3.90
2023-04-14T06:06:33.540Z,3.80
2023-04-14T06:09:01.771Z,4.07
2023-04-14T06:11:29.884Z,4.33
2023-04-14T06:14:01.240Z,6.20
2023-04-14T06:16:29.255Z,5.30
2023-04-14T06:18:57.179Z,5.60
2023-04-14T06:21:27.324Z,4.87
2023-04-14T06:23:55.350Z,4.20
2023-04-14T06:26:23.329Z,4.60
2023-04-14T06:28:51.234Z,4.07
2023-04-14T06:31:20.880Z,3.13
2023-04-14T06:33:48.827Z,3.40
2023-04-14T06:36:18.196Z,2.80
2023-04-14T06:38:46.191Z,3.70
2023-04-14T06:41:14.204Z,3.50
2023-04-14T06:43:42.842Z,3.87
2023-04-14T06:46:10.958Z,3.90
2023-04-14T06:48:40.239Z,3.97
2023-04-14T06:51:10.592Z,5.07
2023-04-14T06:53:39.542Z,4.37
2023-04-14T06:56:08.411Z,5.20
2023-04-14T06:58:36.724Z,4.80
2023-04-14T07:01:05.256Z,3.87
2023-04-14T07:03:34.543Z,4.03
2023-04-14T07:06:09.231Z,3.93
2023-04-14T07:08:37.827Z,4.27
2023-04-14T07:11:08.635Z,3.87
2023-04-14T07:13:36.726Z,2.73
2023-04-14T07:16:06.383Z,3.23
2023-04-14T07:18:35.206Z,3.03
2023-04-14T07:21:04.139Z,2.87
2023-04-14T07:23:35.772Z,2.80
2023-04-14T07:26:09.468Z,3.00
2023-04-14T07:28:38.339Z,3.03
2023-04-14T07:31:11.903Z,3.43
2023-04-14T07:33:40.801Z,3.13
2023-04-14T07:36:11.601Z,2.50
2023-04-14T07:38:49.634Z,3.20
2023-04-14T07:41:38.642Z,3.10
2023-04-14T07:44:25.039Z,1.83
2023-04-14T07:46:59.903Z,2.23
2023-04-14T07:49:35.113Z,1.90
2023-04-14T07:52:04.767Z,1.70
2023-04-14T07:54:36.106Z,1.73
2023-04-14T07:57:04.538Z,1.40
2023-04-14T07:59:35.992Z,1.70
2023-04-14T08:02:15.770Z,1.57
2023-04-14T08:05:13.505Z,1.80
2023-04-14T08:07:43.221Z,1.60
2023-04-14T08:10:14.188Z,2.17
2023-04-14T08:12:45.805Z,2.07
2023-04-14T08:15:20.487Z,1.47
2023-04-14T08:17:52.666Z,1.40
2023-04-14T08:20:23.242Z,1.30
2023-04-14T08:22:52.169Z,1.77
2023-04-14T08:25:22.330Z,2.10
2023-04-14T08:27:51.338Z,1.63
2023-04-14T08:30:23.715Z,1.50
2023-04-14T08:32:53.306Z,1.60
2023-04-14T08:35:37.566Z,1.77
2023-04-14T08:38:09.505Z,1.70
2023-04-14T08:40:41.029Z,1.93
2023-04-14T08:43:13.837Z,1.90
2023-04-14T08:45:44.645Z,1.70
2023-04-14T08:48:17.161Z,1.70
2023-04-14T08:50:56.810Z,1.60
2023-04-14T08:53:27.538Z,2.13
2023-04-14T08:55:59.788Z,2.47
2023-04-14T08:58:28.251Z,1.93
2023-04-14T09:00:59.176Z,1.50
2023-04-14T09:03:29.661Z,1.70
2023-04-14T09:06:01.941Z,1.83
2023-04-14T09:08:34.200Z,2.03
2023-04-14T09:11:05.807Z,1.70
2023-04-14T09:13:36.045Z,2.00
2023-04-14T09:16:06.613Z,1.83
2023-04-14T09:18:36.541Z,2.10
2023-04-14T09:21:30.313Z,2.43
2023-04-14T09:23:56.056Z,2.00
2023-04-14T09:26:26.990Z,1.57
2023-04-14T09:28:54.856Z,2.33
2023-04-14T09:31:24.090Z,2.17
2023-04-14T09:33:53.584Z,2.25
2023-04-14T09:36:23.676Z,2.08
2023-04-14T09:38:53.461Z,1.95
2023-04-14T09:41:23.943Z,1.70
2023-04-14T09:43:54.878Z,2.47
2023-04-14T09:46:23.064Z,2.10
2023-04-14T09:48:52.562Z,2.00
2023-04-14T09:51:23.971Z,1.90
2023-04-14T09:53:56.000Z,2.15
2023-04-14T09:56:29.326Z,1.90
2023-04-14T09:59:01.089Z,2.20
2023-04-14T10:01:32.043Z,2.03
2023-04-14T10:04:01.623Z,2.03
2023-04-14T10:06:31.294Z,1.88
2023-04-14T10:09:00.157Z,1.98
2023-04-14T10:11:35.169Z,2.30
2023-04-14T10:14:06.370Z,1.88
2023-04-14T10:16:35.173Z,2.10
2023-04-14T10:19:03.832Z,2.13
2023-04-14T10:21:32.808Z,2.10
2023-04-14T10:24:01.725Z,1.67
2023-04-14T10:26:30.100Z,1.75
2023-04-14T10:28:58.184Z,2.40
2023-04-14T10:31:33.863Z,2.30
2023-04-14T10:34:08.645Z,1.77
2023-04-14T10:36:37.246Z,2.30
2023-04-14T10:39:07.099Z,1.92
2023-04-14T10:41:47.437Z,1.83
2023-04-14T10:44:27.187Z,1.88
2023-04-14T10:46:57.996Z,1.60
2023-04-14T10:49:31.712Z,2.60
2023-04-14T10:52:02.074Z,1.50
2023-04-14T10:54:48.953Z,1.42
2023-04-14T10:57:18.564Z,1.80
2023-04-14T10:59:47.477Z,2.00
2023-04-14T11:02:28.093Z,1.90
2023-04-14T11:05:06.095Z,1.75
2023-04-14T11:07:40.306Z,2.00
2023-04-14T11:10:29.781Z,1.42
2023-04-14T11:13:04.209Z,2.03
2023-04-14T11:15:48.291Z,2.15
2023-04-14T11:18:18.940Z,1.58
2023-04-14T11:20:47.298Z,1.70
2023-04-14T11:23:16.499Z,1.42
2023-04-14T11:25:45.671Z,1.48
2023-04-14T11:28:13.682Z,1.92
2023-04-14T11:30:43.056Z,1.55
2023-04-14T11:33:11.115Z,2.15
2023-04-14T11:35:44.475Z,1.48
2023-04-14T11:38:16.184Z,1.20
2023-04-14T11:40:50.993Z,1.65
2023-04-14T11:43:21.456Z,3.88
2023-04-14T11:45:52.711Z,1.60
2023-04-14T11:48:22.043Z,1.65
2023-04-14T11:50:53.080Z,1.10
2023-04-14T11:53:21.977Z,1.50
2023-04-14T11:55:51.979Z,1.02
2023-04-14T11:58:23.746Z,1.52
2023-04-14T12:00:54.328Z,1.42
2023-04-14T12:03:28.579Z,1.83
2023-04-14T12:06:00.677Z,1.90
2023-04-14T12:08:31.517Z,2.08
2023-04-14T12:11:00.090Z,1.30
2023-04-14T12:13:29.294Z,1.55
2023-04-14T12:15:58.675Z,1.30
2023-04-14T12:18:30.202Z,1.58
2023-04-14T12:21:03.977Z,1.23
2023-04-14T12:23:36.154Z,1.48
2023-04-14T12:26:04.478Z,1.50
2023-04-14T12:28:34.915Z,1.90
2023-04-14T12:31:04.981Z,1.27
2023-04-14T12:33:33.978Z,1.55
2023-04-14T12:36:08.193Z,1.27
2023-04-14T12:38:37.497Z,1.27
2023-04-14T12:41:06.243Z,1.00
2023-04-14T12:43:36.182Z,1.52
2023-04-14T12:46:06.359Z,2.53
2023-04-14T12:48:43.960Z,1.35
2023-04-14T12:51:17.506Z,1.98
2023-04-14T12:53:48.093Z,1.63
2023-04-14T12:56:19.444Z,1.35
2023-04-14T12:58:49.539Z,0.90
2023-04-14T13:01:19.325Z,1.08
2023-04-14T13:03:50.393Z,1.05
2023-04-14T13:06:22.020Z,1.27
2023-04-14T13:08:56.373Z,1.10
2023-04-14T13:11:26.427Z,1.35
2023-04-14T13:13:54.918Z,1.17
2023-04-14T13:16:26.978Z,1.20
2023-04-14T13:18:55.608Z,1.17
2023-04-14T13:21:24.905Z,1.05
2023-04-14T13:23:52.953Z,1.45
2023-04-14T13:26:20.828Z,1.23
2023-04-14T13:28:50.429Z,1.10
2023-04-14T13:31:19.160Z,1.23
2023-04-14T13:33:47.220Z,1.20
2023-04-14T13:36:15.151Z,0.80
2023-04-14T13:38:44.497Z,1.05
2023-04-14T13:41:15.160Z,1.25
2023-04-14T13:43:43.131Z,1.23
2023-04-14T13:46:11.343Z,1.00
2023-04-14T13:48:39.304Z,1.00
2023-04-14T13:51:07.429Z,1.00
2023-04-14T13:53:35.312Z,1.40
2023-04-14T13:56:04.927Z,1.33
2023-04-14T13:58:32.939Z,1.23
2023-04-14T14:01:10.436Z,0.90
2023-04-14T14:03:42.154Z,1.02
2023-04-14T14:06:10.512Z,1.27
2023-04-14T14:08:39.359Z,1.20
2023-04-14T14:11:09.404Z,1.30
2023-04-14T14:13:40.072Z,0.95
2023-04-14T14:16:09.535Z,1.00
2023-04-14T14:18:40.786Z,1.02
2023-04-14T14:21:09.433Z,0.80
2023-04-14T14:23:37.411Z,0.95
2023-04-14T14:26:07.438Z,0.80
2023-04-14T14:28:36.656Z,0.98
2023-04-14T14:31:07.548Z,0.77
2023-04-14T14:33:35.469Z,0.90
2023-04-14T14:36:03.946Z,1.05
2023-04-14T14:38:32.621Z,1.08
2023-04-14T14:41:01.224Z,0.70
2023-04-14T14:43:29.105Z,1.00
2023-04-14T14:45:58.624Z,1.13
2023-04-14T14:48:26.727Z,0.98
2023-04-14T14:50:57.203Z,1.25
2023-04-14T14:53:26.898Z,0.93
2023-04-14T14:55:55.781Z,0.98
2023-04-14T14:58:29.911Z,1.00
2023-04-14T15:01:08.829Z,0.93
2023-04-14T15:03:38.625Z,2.53
2023-04-14T15:06:08.367Z,1.60
2023-04-14T15:08:36.900Z,3.22
2023-04-14T15:11:05.506Z,1.00
2023-04-14T15:13:35.311Z,1.00
2023-04-14T15:16:05.150Z,0.80
2023-04-14T15:18:35.779Z,0.80
2023-04-14T15:21:06.566Z,1.13
2023-04-14T15:23:44.858Z,1.00
2023-04-14T15:26:19.862Z,1.17
2023-04-14T15:28:49.532Z,0.90
2023-04-14T15:31:21.805Z,0.70
2023-04-14T15:33:55.839Z,0.90
2023-04-14T15:36:24.453Z,1.15
2023-04-14T15:38:54.161Z,1.00
2023-04-14T15:41:25.068Z,1.10
2023-04-14T15:44:14.863Z,0.90
2023-04-14T15:46:53.506Z,1.00
2023-04-14T15:49:29.268Z,1.30
2023-04-14T15:52:16.926Z,1.27
2023-04-14T15:54:51.663Z,1.10
2023-04-14T15:57:49.269Z,0.80
2023-04-14T16:00:25.266Z,1.05
2023-04-14T16:03:07.658Z,1.13
2023-04-14T16:05:51.829Z,1.25
2023-04-14T16:08:30.916Z,0.90
2023-04-14T16:11:34.747Z,1.35
2023-04-14T16:14:19.380Z,0.90
2023-04-14T16:16:52.981Z,0.93
2023-04-14T16:19:41.827Z,1.05
2023-04-14T16:22:14.102Z,0.90
2023-04-14T16:24:47.623Z,1.08
2023-04-14T16:27:17.776Z,0.80
2023-04-14T16:29:48.003Z,1.05
2023-04-14T16:32:26.939Z,1.15
2023-04-14T16:35:20.312Z,1.00
2023-04-14T16:38:08.430Z,0.82
2023-04-14T16:40:37.265Z,0.80
2023-04-14T16:43:05.957Z,1.52
2023-04-14T16:45:34.831Z,0.70
2023-04-14T16:48:02.975Z,1.17
2023-04-14T16:50:32.199Z,1.10
2023-04-14T16:53:00.122Z,1.10
2023-04-14T16:55:33.772Z,1.38
2023-04-14T16:58:01.967Z,1.20
2023-04-14T17:00:30.569Z,1.20
2023-04-14T17:02:58.758Z,2.47
2023-04-14T17:05:27.292Z,1.93
2023-04-14T17:07:55.372Z,1.27
2023-04-14T17:10:23.451Z,1.00
2023-04-14T17:12:54.046Z,0.90
2023-04-14T17:15:22.050Z,0.77
2023-04-14T17:17:51.250Z,0.57
2023-04-14T17:20:21.017Z,1.27
2023-04-14T17:22:51.810Z,0.97
2023-04-14T17:25:20.983Z,1.10
2023-04-14T17:27:49.030Z,1.37
2023-04-14T17:30:18.617Z,1.20
2023-04-14T17:32:50.325Z,1.13
2023-04-14T17:35:23.772Z,0.90
2023-04-14T17:38:14.339Z,1.10
2023-04-14T17:41:01.570Z,1.10
2023-04-14T17:43:40.502Z,1.07
2023-04-14T17:46:35.412Z,0.90
2023-04-14T17:49:18.933Z,0.90
2023-04-14T17:52:10.303Z,1.03
2023-04-14T17:54:52.345Z,1.07
2023-04-14T17:57:27.350Z,1.10
2023-04-14T18:00:02.011Z,0.80
2023-04-14T18:02:59.622Z,1.07
2023-04-14T18:05:51.237Z,1.20
2023-04-14T18:08:32.355Z,1.07
2023-04-14T18:11:29.009Z,0.90
2023-04-14T18:13:59.658Z,1.10
2023-04-14T18:16:29.527Z,1.90
2023-04-14T18:19:19.459Z,1.30
2023-04-14T18:22:12.872Z,1.50
2023-04-14T18:24:48.570Z,1.20
2023-04-14T18:29:51.333Z,1.30
2023-04-14T18:32:19.548Z,1.97
2023-04-14T18:34:57.756Z,1.63
2023-04-14T18:37:27.847Z,1.97
2023-04-14T18:39:56.700Z,1.90
2023-04-14T18:42:24.785Z,1.60
2023-04-14T18:44:53.809Z,1.70
2023-04-14T18:47:22.290Z,2.10
2023-04-14T18:49:51.803Z,2.43
2023-04-14T18:52:19.965Z,1.93
2023-04-14T18:54:48.181Z,1.70
2023-04-14T18:57:16.251Z,1.70
2023-04-14T18:59:44.595Z,1.87
2023-04-14T19:02:13.775Z,2.47
2023-04-14T19:04:42.088Z,2.60
2023-04-14T19:07:11.484Z,2.43
2023-04-14T19:09:39.676Z,1.73
2023-04-14T19:12:12.953Z,1.80
2023-04-14T19:14:53.203Z,1.87
2023-04-14T19:17:21.225Z,1.60
2023-04-14T19:19:53.419Z,1.50
2023-04-14T19:22:22.717Z,1.10
2023-04-14T19:24:51.141Z,2.00
2023-04-14T19:27:19.342Z,1.67
2023-04-14T19:29:47.274Z,1.47
2023-04-14T19:32:17.923Z,1.80
2023-04-14T19:34:46.428Z,2.23
2023-04-14T19:37:15.151Z,2.40
2023-04-14T19:39:45.339Z,2.30
2023-04-14T19:42:13.474Z,2.33
2023-04-14T19:44:44.823Z,2.77
2023-04-14T19:47:13.217Z,2.03
2023-04-14T19:49:43.480Z,2.17
2023-04-14T19:52:12.097Z,2.27
2023-04-14T19:54:40.258Z,3.67
2023-04-14T19:57:10.251Z,4.30
2023-04-14T19:59:38.205Z,3.40
2023-04-14T20:02:10.553Z,3.07
2023-04-14T20:04:38.717Z,2.70
2023-04-14T20:07:07.466Z,3.00
2023-04-14T20:09:36.109Z,5.60
2023-04-14T20:12:06.636Z,3.30
2023-04-14T20:14:35.834Z,2.43
2023-04-14T20:17:04.027Z,2.63
2023-04-14T20:19:33.069Z,2.50
2023-04-14T20:22:01.157Z,2.17
2023-04-14T20:24:29.388Z,4.47
2023-04-14T20:26:57.354Z,3.70
2023-04-14T20:29:25.374Z,2.20
2023-04-14T20:31:54.626Z,2.50
2023-04-14T20:34:22.538Z,2.53
2023-04-14T20:36:52.973Z,2.17
2023-04-14T20:39:20.878Z,2.67
2023-04-14T20:41:48.724Z,4.97
2023-04-14T20:44:17.113Z,2.87
2023-04-14T20:46:45.174Z,3.20
2023-04-14T20:49:14.453Z,3.60
2023-04-14T20:51:42.357Z,3.60
2023-04-14T20:54:10.446Z,4.03
2023-04-14T20:56:38.321Z,4.03
2023-04-14T20:59:06.356Z,2.67
2023-04-14T21:01:34.388Z,4.00
2023-04-14T21:04:02.612Z,3.03
2023-04-14T21:06:33.122Z,4.20
2023-04-14T21:09:02.067Z,3.70
2023-04-14T21:11:31.871Z,4.03
2023-04-14T21:15:31.116Z,3.77
2023-04-14T21:16:48.564Z,3.53
2023-04-14T21:19:16.449Z,3.60
2023-04-14T21:21:45.855Z,4.37
2023-04-14T21:24:16.013Z,3.60
2023-04-14T21:26:43.916Z,4.60
2023-04-14T21:29:11.875Z,4.00
2023-04-14T21:31:40.123Z,3.30
2023-04-14T21:34:08.117Z,3.60
2023-04-14T21:36:36.258Z,3.47
2023-04-14T21:39:05.648Z,5.03
2023-04-14T21:41:33.848Z,5.03
2023-04-14T21:44:01.898Z,5.03
2023-04-14T21:46:30.454Z,4.57
2023-04-14T21:48:58.395Z,4.50
2023-04-14T21:51:27.582Z,4.50
2023-04-14T21:53:55.852Z,3.73
2023-04-14T21:56:25.041Z,4.63
2023-04-14T21:58:52.944Z,4.27
2023-04-14T22:01:20.920Z,4.33
2023-04-14T22:03:49.954Z,4.03
2023-04-14T22:06:19.226Z,4.17
2023-04-14T22:08:47.187Z,4.73
2023-04-14T22:11:15.117Z,4.53
2023-04-14T22:13:44.628Z,3.83
2023-04-14T22:16:12.482Z,4.40
2023-04-14T22:18:42.964Z,3.90
2023-04-14T22:21:12.066Z,4.43
2023-04-14T22:23:40.593Z,4.50
2023-04-14T22:26:09.026Z,4.40
2023-04-14T22:28:37.130Z,4.23
2023-04-14T22:31:07.900Z,4.10
2023-04-14T22:33:36.069Z,4.13
2023-04-14T22:36:06.181Z,4.40
2023-04-14T22:38:34.747Z,3.60
2023-04-14T22:41:02.774Z,4.47
2023-04-14T22:43:30.854Z,4.93
2023-04-14T22:45:58.782Z,5.00
2023-04-14T22:48:28.096Z,4.60
2023-04-14T22:50:56.176Z,4.40
2023-04-14T22:53:24.056Z,3.90
2023-04-14T22:55:52.028Z,4.77
2023-04-14T22:58:21.811Z,4.43
2023-04-14T23:00:49.674Z,5.00
2023-04-14T23:03:17.654Z,4.20
2023-04-14T23:05:47.129Z,3.97
2023-04-14T23:08:15.648Z,3.50
2023-04-14T23:10:43.605Z,4.70
2023-04-14T23:13:11.555Z,4.23
2023-04-14T23:15:39.507Z,4.50
2023-04-14T23:18:07.477Z,3.80
2023-04-14T23:20:35.361Z,3.97
2023-04-14T23:23:12.005Z,4.77
2023-04-14T23:25:40.067Z,5.00
2023-04-14T23:28:08.301Z,5.13
2023-04-14T23:30:36.803Z,5.10
2023-04-14T23:33:04.781Z,5.23
2023-04-14T23:35:32.809Z,4.70
2023-04-14T23:38:02.438Z,4.97
2023-04-14T23:40:32.728Z,6.00
2023-04-14T23:43:01.229Z,8.40
2023-04-14T23:45:34.053Z,7.33
2023-04-14T23:48:02.025Z,7.53
2023-04-14T23:51:00.342Z,4.93
2023-04-14T23:53:18.103Z,6.50
2023-04-14T23:55:48.069Z,5.47
2023-04-14T23:58:26.183Z,4.43
